sensor_id;sensor_type;location;lat;lon;timestamp;temperature;humidity
21318;DHT22;10818;50.830;6.524;2022-11-15T00:01:38;12.50;99.90
21318;DHT22;10818;50.830;6.524;2022-11-15T00:06:38;12.60;99.90
21318;DHT22;10818;50.830;6.524;2022-11-15T00:11:39;12.60;99.90
21318;DHT22;10818;50.830;6.524;2022-11-15T00:16:39;12.70;99.90
21318;DHT22;10818;50.830;6.524;2022-11-15T00:21:40;12.60;99.90
21318;DHT22;10818;50.830;6.524;2022-11-15T00:26:40;12.70;99.90
21318;DHT22;10818;50.830;6.524;2022-11-15T00:31:41;12.80;99.90
21318;DHT22;10818;50.830;6.524;2022-11-15T00:36:41;12.80;99.90
21318;DHT22;10818;50.830;6.524;2022-11-15T00:41:42;12.90;99.90
21318;DHT22;10818;50.830;6.524;2022-11-15T00:46:42;12.80;99.90
21318;DHT22;10818;50.830;6.524;2022-11-15T00:51:43;12.90;99.90
21318;DHT22;10818;50.830;6.524;2022-11-15T00:56:43;12.90;99.90
21318;DHT22;10818;50.830;6.524;2022-11-15T01:01:43;12.90;99.90
21318;DHT22;10818;50.830;6.524;2022-11-15T01:06:44;12.80;99.90
21318;DHT22;10818;50.830;6.524;2022-11-15T01:11:44;12.90;99.90
21318;DHT22;10818;50.830;6.524;2022-11-15T01:16:45;12.90;99.90
21318;DHT22;10818;50.830;6.524;2022-11-15T01:21:45;12.80;99.90
21318;DHT22;10818;50.830;6.524;2022-11-15T01:26:48;12.90;99.90
21318;DHT22;10818;50.830;6.524;2022-11-15T01:31:49;12.90;99.90
21318;DHT22;10818;50.830;6.524;2022-11-15T01:36:49;12.90;99.90
21318;DHT22;10818;50.830;6.524;2022-11-15T01:41:50;12.90;99.90
21318;DHT22;10818;50.830;6.524;2022-11-15T01:46:50;13.00;99.90
21318;DHT22;10818;50.830;6.524;2022-11-15T01:51:51;13.00;99.90
21318;DHT22;10818;50.830;6.524;2022-11-15T01:56:52;12.90;99.90
21318;DHT22;10818;50.830;6.524;2022-11-15T02:01:53;12.90;99.90
21318;DHT22;10818;50.830;6.524;2022-11-15T02:06:54;12.70;99.90
21318;DHT22;10818;50.830;6.524;2022-11-15T02:11:54;12.60;99.90
21318;DHT22;10818;50.830;6.524;2022-11-15T02:17:11;12.50;99.90
21318;DHT22;10818;50.830;6.524;2022-11-15T02:32:50;12.60;99.90
21318;DHT22;10818;50.830;6.524;2022-11-15T02:37:54;12.50;99.90
21318;DHT22;10818;50.830;6.524;2022-11-15T02:42:57;12.50;99.90
21318;DHT22;10818;50.830;6.524;2022-11-15T02:48:18;12.50;99.90
21318;DHT22;10818;50.830;6.524;2022-11-15T02:53:23;12.60;99.90
21318;DHT22;10818;50.830;6.524;2022-11-15T03:04:20;12.60;99.90
21318;DHT22;10818;50.830;6.524;2022-11-15T03:19:28;12.60;99.90
21318;DHT22;10818;50.830;6.524;2022-11-15T03:24:30;12.80;99.90
21318;DHT22;10818;50.830;6.524;2022-11-15T03:29:34;12.80;99.90
21318;DHT22;10818;50.830;6.524;2022-11-15T03:39:55;12.90;99.90
21318;DHT22;10818;50.830;6.524;2022-11-15T03:50:01;12.90;99.90
21318;DHT22;10818;50.830;6.524;2022-11-15T03:55:03;12.90;99.90
21318;DHT22;10818;50.830;6.524;2022-11-15T04:00:04;12.90;99.90
21318;DHT22;10818;50.830;6.524;2022-11-15T04:05:04;12.90;99.90
21318;DHT22;10818;50.830;6.524;2022-11-15T04:10:05;12.90;99.90
21318;DHT22;10818;50.830;6.524;2022-11-15T04:15:13;12.70;99.90
21318;DHT22;10818;50.830;6.524;2022-11-15T04:20:15;12.50;99.90
21318;DHT22;10818;50.830;6.524;2022-11-15T04:25:35;12.50;99.90
21318;DHT22;10818;50.830;6.524;2022-11-15T04:30:35;12.60;99.90
21318;DHT22;10818;50.830;6.524;2022-11-15T04:35:36;12.50;99.90
21318;DHT22;10818;50.830;6.524;2022-11-15T04:40:36;12.60;99.90
21318;DHT22;10818;50.830;6.524;2022-11-15T04:45:37;12.70;99.90
21318;DHT22;10818;50.830;6.524;2022-11-15T04:50:37;12.80;99.90
21318;DHT22;10818;50.830;6.524;2022-11-15T04:55:38;12.70;99.90
21318;DHT22;10818;50.830;6.524;2022-11-15T05:00:38;12.60;99.90
21318;DHT22;10818;50.830;6.524;2022-11-15T05:05:40;12.50;99.90
21318;DHT22;10818;50.830;6.524;2022-11-15T05:10:40;12.30;99.90
21318;DHT22;10818;50.830;6.524;2022-11-15T05:15:40;12.10;99.90
21318;DHT22;10818;50.830;6.524;2022-11-15T05:20:41;12.00;99.90
21318;DHT22;10818;50.830;6.524;2022-11-15T05:25:41;11.90;99.90
21318;DHT22;10818;50.830;6.524;2022-11-15T05:30:42;11.70;99.90
21318;DHT22;10818;50.830;6.524;2022-11-15T05:35:44;11.50;99.90
21318;DHT22;10818;50.830;6.524;2022-11-15T05:40:46;11.50;99.90
21318;DHT22;10818;50.830;6.524;2022-11-15T05:45:46;11.40;99.90
21318;DHT22;10818;50.830;6.524;2022-11-15T05:50:47;11.10;99.90
21318;DHT22;10818;50.830;6.524;2022-11-15T05:55:48;11.10;99.90
21318;DHT22;10818;50.830;6.524;2022-11-15T06:00:48;10.90;99.90
21318;DHT22;10818;50.830;6.524;2022-11-15T06:05:49;10.70;99.90
21318;DHT22;10818;50.830;6.524;2022-11-15T06:10:49;10.60;99.90
21318;DHT22;10818;50.830;6.524;2022-11-15T06:15:50;10.50;99.90
21318;DHT22;10818;50.830;6.524;2022-11-15T06:20:50;10.40;99.90
21318;DHT22;10818;50.830;6.524;2022-11-15T06:25:51;10.20;99.90
21318;DHT22;10818;50.830;6.524;2022-11-15T06:30:51;10.10;99.90
21318;DHT22;10818;50.830;6.524;2022-11-15T06:35:52;10.20;99.90
21318;DHT22;10818;50.830;6.524;2022-11-15T06:40:52;10.20;99.90
21318;DHT22;10818;50.830;6.524;2022-11-15T06:45:53;10.10;99.90
21318;DHT22;10818;50.830;6.524;2022-11-15T06:50:54;10.20;99.90
21318;DHT22;10818;50.830;6.524;2022-11-15T06:55:58;10.20;99.90
21318;DHT22;10818;50.830;6.524;2022-11-15T07:00:59;10.20;99.90
21318;DHT22;10818;50.830;6.524;2022-11-15T07:06:00;10.40;99.90
21318;DHT22;10818;50.830;6.524;2022-11-15T07:11:01;10.70;99.90
21318;DHT22;10818;50.830;6.524;2022-11-15T07:16:03;10.70;99.90
21318;DHT22;10818;50.830;6.524;2022-11-15T07:21:04;10.80;99.90
21318;DHT22;10818;50.830;6.524;2022-11-15T07:26:05;10.70;99.90
21318;DHT22;10818;50.830;6.524;2022-11-15T07:31:06;10.90;99.90
21318;DHT22;10818;50.830;6.524;2022-11-15T07:36:07;11.20;99.90
21318;DHT22;10818;50.830;6.524;2022-11-15T07:41:08;11.40;99.90
21318;DHT22;10818;50.830;6.524;2022-11-15T07:46:08;11.60;99.90
21318;DHT22;10818;50.830;6.524;2022-11-15T07:51:10;11.90;99.90
21318;DHT22;10818;50.830;6.524;2022-11-15T07:56:11;12.40;99.90
21318;DHT22;10818;50.830;6.524;2022-11-15T08:01:12;12.50;99.90
21318;DHT22;10818;50.830;6.524;2022-11-15T08:06:13;13.00;99.90
21318;DHT22;10818;50.830;6.524;2022-11-15T08:11:13;13.70;99.90
21318;DHT22;10818;50.830;6.524;2022-11-15T08:16:14;14.40;99.90
21318;DHT22;10818;50.830;6.524;2022-11-15T08:21:15;15.60;99.90
21318;DHT22;10818;50.830;6.524;2022-11-15T08:26:17;16.90;99.90
21318;DHT22;10818;50.830;6.524;2022-11-15T08:31:18;17.30;99.90
21318;DHT22;10818;50.830;6.524;2022-11-15T08:36:19;19.50;99.90
21318;DHT22;10818;50.830;6.524;2022-11-15T08:41:23;20.70;99.90
21318;DHT22;10818;50.830;6.524;2022-11-15T08:46:24;20.90;99.90
21318;DHT22;10818;50.830;6.524;2022-11-15T08:51:25;20.60;99.90
21318;DHT22;10818;50.830;6.524;2022-11-15T08:56:25;21.20;99.90
21318;DHT22;10818;50.830;6.524;2022-11-15T09:01:26;20.70;99.90
21318;DHT22;10818;50.830;6.524;2022-11-15T09:06:26;21.50;99.90
21318;DHT22;10818;50.830;6.524;2022-11-15T09:11:27;21.20;99.90
21318;DHT22;10818;50.830;6.524;2022-11-15T09:16:27;21.10;99.90
21318;DHT22;10818;50.830;6.524;2022-11-15T09:21:30;21.10;99.90
21318;DHT22;10818;50.830;6.524;2022-11-15T09:26:30;19.00;99.90
21318;DHT22;10818;50.830;6.524;2022-11-15T09:31:31;17.70;99.90
21318;DHT22;10818;50.830;6.524;2022-11-15T09:36:31;16.80;99.90
21318;DHT22;10818;50.830;6.524;2022-11-15T09:41:45;16.20;99.90
21318;DHT22;10818;50.830;6.524;2022-11-15T09:46:55;16.10;99.90
21318;DHT22;10818;50.830;6.524;2022-11-15T09:51:58;15.70;99.90
21318;DHT22;10818;50.830;6.524;2022-11-15T09:57:12;15.70;99.90
21318;DHT22;10818;50.830;6.524;2022-11-15T10:02:23;15.50;99.90
21318;DHT22;10818;50.830;6.524;2022-11-15T10:07:33;15.50;99.90
21318;DHT22;10818;50.830;6.524;2022-11-15T10:12:34;15.30;99.90
21318;DHT22;10818;50.830;6.524;2022-11-15T10:17:40;15.00;99.90
21318;DHT22;10818;50.830;6.524;2022-11-15T10:22:46;14.70;99.90
21318;DHT22;10818;50.830;6.524;2022-11-15T10:27:58;14.70;99.90
21318;DHT22;10818;50.830;6.524;2022-11-15T10:33:00;14.80;99.90
21318;DHT22;10818;50.830;6.524;2022-11-15T10:38:09;14.80;99.90
21318;DHT22;10818;50.830;6.524;2022-11-15T10:53:21;14.40;99.90
21318;DHT22;10818;50.830;6.524;2022-11-15T10:58:42;14.30;99.90
21318;DHT22;10818;50.830;6.524;2022-11-15T11:03:44;14.40;99.90
21318;DHT22;10818;50.830;6.524;2022-11-15T11:08:55;14.50;99.90
21318;DHT22;10818;50.830;6.524;2022-11-15T11:13:59;14.70;99.90
21318;DHT22;10818;50.830;6.524;2022-11-15T11:19:17;14.90;99.90
21318;DHT22;10818;50.830;6.524;2022-11-15T11:24:22;14.70;99.90
21318;DHT22;10818;50.830;6.524;2022-11-15T11:29:33;14.90;99.90
21318;DHT22;10818;50.830;6.524;2022-11-15T11:45:05;15.90;99.90
21318;DHT22;10818;50.830;6.524;2022-11-15T11:50:14;15.90;99.90
21318;DHT22;10818;50.830;6.524;2022-11-15T12:00:20;15.90;99.90
21318;DHT22;10818;50.830;6.524;2022-11-15T12:10:31;15.70;99.90
21318;DHT22;10818;50.830;6.524;2022-11-15T12:15:43;15.50;99.90
21318;DHT22;10818;50.830;6.524;2022-11-15T12:20:59;15.80;99.90
21318;DHT22;10818;50.830;6.524;2022-11-15T12:26:06;15.90;99.90
21318;DHT22;10818;50.830;6.524;2022-11-15T12:31:11;16.00;99.90
21318;DHT22;10818;50.830;6.524;2022-11-15T12:41:27;15.80;99.90
21318;DHT22;10818;50.830;6.524;2022-11-15T12:56:43;15.40;99.90
21318;DHT22;10818;50.830;6.524;2022-11-15T13:06:51;15.60;99.90
21318;DHT22;10818;50.830;6.524;2022-11-15T13:11:52;15.50;99.90
21318;DHT22;10818;50.830;6.524;2022-11-15T13:16:57;15.50;99.90
21318;DHT22;10818;50.830;6.524;2022-11-15T13:21:58;15.50;99.90
21318;DHT22;10818;50.830;6.524;2022-11-15T13:27:18;15.40;99.90
21318;DHT22;10818;50.830;6.524;2022-11-15T13:32:19;15.40;99.90
21318;DHT22;10818;50.830;6.524;2022-11-15T13:42:20;15.50;99.90
21318;DHT22;10818;50.830;6.524;2022-11-15T13:47:21;15.60;99.90
21318;DHT22;10818;50.830;6.524;2022-11-15T13:52:22;15.70;99.90
21318;DHT22;10818;50.830;6.524;2022-11-15T13:57:42;15.60;99.90
21318;DHT22;10818;50.830;6.524;2022-11-15T14:02:44;15.40;99.90
21318;DHT22;10818;50.830;6.524;2022-11-15T14:07:54;15.10;99.90
21318;DHT22;10818;50.830;6.524;2022-11-15T14:12:55;15.10;99.90
21318;DHT22;10818;50.830;6.524;2022-11-15T14:17:56;15.10;99.90
21318;DHT22;10818;50.830;6.524;2022-11-15T14:22:57;15.20;99.90
21318;DHT22;10818;50.830;6.524;2022-11-15T14:28:40;15.20;99.90
21318;DHT22;10818;50.830;6.524;2022-11-15T14:33:23;15.00;99.90
21318;DHT22;10818;50.830;6.524;2022-11-15T14:38:24;15.00;99.90
21318;DHT22;10818;50.830;6.524;2022-11-15T14:43:25;15.00;99.90
21318;DHT22;10818;50.830;6.524;2022-11-15T14:48:25;15.00;99.90
21318;DHT22;10818;50.830;6.524;2022-11-15T14:53:26;15.00;99.90
21318;DHT22;10818;50.830;6.524;2022-11-15T14:58:26;14.80;99.90
21318;DHT22;10818;50.830;6.524;2022-11-15T15:03:27;14.80;99.90
21318;DHT22;10818;50.830;6.524;2022-11-15T15:08:27;14.80;99.90
21318;DHT22;10818;50.830;6.524;2022-11-15T15:13:28;14.70;99.90
21318;DHT22;10818;50.830;6.524;2022-11-15T15:18:30;14.50;99.90
21318;DHT22;10818;50.830;6.524;2022-11-15T15:23:31;14.50;99.90
21318;DHT22;10818;50.830;6.524;2022-11-15T15:28:31;14.60;99.90
21318;DHT22;10818;50.830;6.524;2022-11-15T15:33:32;14.50;99.90
21318;DHT22;10818;50.830;6.524;2022-11-15T15:38:32;14.50;99.90
21318;DHT22;10818;50.830;6.524;2022-11-15T15:43:33;14.50;99.90
21318;DHT22;10818;50.830;6.524;2022-11-15T15:48:33;14.50;99.90
21318;DHT22;10818;50.830;6.524;2022-11-15T15:53:37;14.40;99.90
21318;DHT22;10818;50.830;6.524;2022-11-15T15:58:38;14.40;99.90
21318;DHT22;10818;50.830;6.524;2022-11-15T16:03:38;14.40;99.90
21318;DHT22;10818;50.830;6.524;2022-11-15T16:08:39;14.30;99.90
21318;DHT22;10818;50.830;6.524;2022-11-15T16:13:39;14.30;99.90
21318;DHT22;10818;50.830;6.524;2022-11-15T16:18:39;14.30;99.90
21318;DHT22;10818;50.830;6.524;2022-11-15T16:23:40;14.30;99.90
21318;DHT22;10818;50.830;6.524;2022-11-15T16:28:40;14.40;99.90
21318;DHT22;10818;50.830;6.524;2022-11-15T16:33:41;14.30;99.90
21318;DHT22;10818;50.830;6.524;2022-11-15T16:38:41;14.30;99.90
21318;DHT22;10818;50.830;6.524;2022-11-15T16:43:42;14.30;99.90
21318;DHT22;10818;50.830;6.524;2022-11-15T16:48:42;14.20;99.90
21318;DHT22;10818;50.830;6.524;2022-11-15T16:53:43;14.20;99.90
21318;DHT22;10818;50.830;6.524;2022-11-15T16:58:43;14.20;99.90
21318;DHT22;10818;50.830;6.524;2022-11-15T17:03:44;14.10;99.90
21318;DHT22;10818;50.830;6.524;2022-11-15T17:08:45;14.10;99.90
21318;DHT22;10818;50.830;6.524;2022-11-15T17:13:45;14.10;99.90
21318;DHT22;10818;50.830;6.524;2022-11-15T17:18:49;14.20;99.90
21318;DHT22;10818;50.830;6.524;2022-11-15T17:23:50;14.10;99.90
21318;DHT22;10818;50.830;6.524;2022-11-15T17:28:53;14.00;99.90
21318;DHT22;10818;50.830;6.524;2022-11-15T17:33:54;13.70;99.90
21318;DHT22;10818;50.830;6.524;2022-11-15T17:38:54;13.50;99.90
21318;DHT22;10818;50.830;6.524;2022-11-15T17:43:55;13.30;99.90
21318;DHT22;10818;50.830;6.524;2022-11-15T17:48:57;13.30;99.90
21318;DHT22;10818;50.830;6.524;2022-11-15T17:53:57;13.10;99.90
21318;DHT22;10818;50.830;6.524;2022-11-15T17:58:58;13.00;99.90
21318;DHT22;10818;50.830;6.524;2022-11-15T18:04:00;13.00;99.90
21318;DHT22;10818;50.830;6.524;2022-11-15T18:09:01;13.00;99.90
21318;DHT22;10818;50.830;6.524;2022-11-15T18:14:03;12.90;99.90
21318;DHT22;10818;50.830;6.524;2022-11-15T18:19:04;12.80;99.90
21318;DHT22;10818;50.830;6.524;2022-11-15T18:24:08;12.70;99.90
21318;DHT22;10818;50.830;6.524;2022-11-15T18:29:08;12.60;99.90
21318;DHT22;10818;50.830;6.524;2022-11-15T18:34:09;12.50;99.90
21318;DHT22;10818;50.830;6.524;2022-11-15T18:39:09;12.40;99.90
21318;DHT22;10818;50.830;6.524;2022-11-15T18:44:15;12.50;99.90
21318;DHT22;10818;50.830;6.524;2022-11-15T18:49:16;12.50;99.90
21318;DHT22;10818;50.830;6.524;2022-11-15T18:54:18;12.50;99.90
21318;DHT22;10818;50.830;6.524;2022-11-15T18:59:19;12.60;99.90
21318;DHT22;10818;50.830;6.524;2022-11-15T19:04:19;12.70;99.90
21318;DHT22;10818;50.830;6.524;2022-11-15T19:09:21;12.90;99.90
21318;DHT22;10818;50.830;6.524;2022-11-15T19:14:26;12.90;99.90
21318;DHT22;10818;50.830;6.524;2022-11-15T19:19:27;13.00;99.90
21318;DHT22;10818;50.830;6.524;2022-11-15T19:24:28;13.00;99.90
21318;DHT22;10818;50.830;6.524;2022-11-15T19:29:29;12.90;99.90
21318;DHT22;10818;50.830;6.524;2022-11-15T19:34:29;12.90;99.90
21318;DHT22;10818;50.830;6.524;2022-11-15T19:39:30;13.00;99.90
21318;DHT22;10818;50.830;6.524;2022-11-15T19:44:30;13.10;99.90
21318;DHT22;10818;50.830;6.524;2022-11-15T19:49:31;13.10;99.90
21318;DHT22;10818;50.830;6.524;2022-11-15T19:54:31;13.20;99.90
21318;DHT22;10818;50.830;6.524;2022-11-15T19:59:31;13.20;99.90
21318;DHT22;10818;50.830;6.524;2022-11-15T20:04:32;13.30;99.90
21318;DHT22;10818;50.830;6.524;2022-11-15T20:09:32;13.30;99.90
21318;DHT22;10818;50.830;6.524;2022-11-15T20:14:33;13.30;99.90
21318;DHT22;10818;50.830;6.524;2022-11-15T20:19:33;13.30;99.90
21318;DHT22;10818;50.830;6.524;2022-11-15T20:24:34;13.40;99.90
21318;DHT22;10818;50.830;6.524;2022-11-15T20:29:34;13.40;99.90
21318;DHT22;10818;50.830;6.524;2022-11-15T20:34:34;13.30;99.90
21318;DHT22;10818;50.830;6.524;2022-11-15T20:39:35;13.30;99.90
21318;DHT22;10818;50.830;6.524;2022-11-15T20:44:35;13.30;99.90
21318;DHT22;10818;50.830;6.524;2022-11-15T20:49:36;13.20;99.90
21318;DHT22;10818;50.830;6.524;2022-11-15T20:54:36;13.20;99.90
21318;DHT22;10818;50.830;6.524;2022-11-15T20:59:37;13.20;99.90
21318;DHT22;10818;50.830;6.524;2022-11-15T21:04:37;13.10;99.90
21318;DHT22;10818;50.830;6.524;2022-11-15T21:09:38;12.90;99.90
21318;DHT22;10818;50.830;6.524;2022-11-15T21:15:16;12.80;99.90
21318;DHT22;10818;50.830;6.524;2022-11-15T21:20:18;12.70;99.90
21318;DHT22;10818;50.830;6.524;2022-11-15T21:25:18;12.60;99.90
21318;DHT22;10818;50.830;6.524;2022-11-15T21:30:18;12.60;99.90
21318;DHT22;10818;50.830;6.524;2022-11-15T21:35:19;12.50;99.90
21318;DHT22;10818;50.830;6.524;2022-11-15T21:40:19;12.20;99.90
21318;DHT22;10818;50.830;6.524;2022-11-15T21:45:20;12.40;99.90
21318;DHT22;10818;50.830;6.524;2022-11-15T21:50:20;12.40;99.90
21318;DHT22;10818;50.830;6.524;2022-11-15T21:55:21;12.40;99.90
21318;DHT22;10818;50.830;6.524;2022-11-15T22:00:21;12.40;99.90
21318;DHT22;10818;50.830;6.524;2022-11-15T22:06:00;12.40;99.90
21318;DHT22;10818;50.830;6.524;2022-11-15T22:11:00;12.30;99.90
21318;DHT22;10818;50.830;6.524;2022-11-15T22:16:01;12.30;99.90
21318;DHT22;10818;50.830;6.524;2022-11-15T22:21:02;12.10;99.90
21318;DHT22;10818;50.830;6.524;2022-11-15T22:26:03;12.10;99.90
21318;DHT22;10818;50.830;6.524;2022-11-15T22:31:04;12.00;99.90
21318;DHT22;10818;50.830;6.524;2022-11-15T22:36:05;12.00;99.90
21318;DHT22;10818;50.830;6.524;2022-11-15T22:41:06;12.00;99.90
21318;DHT22;10818;50.830;6.524;2022-11-15T22:46:06;12.00;99.90
21318;DHT22;10818;50.830;6.524;2022-11-15T22:51:07;12.00;99.90
21318;DHT22;10818;50.830;6.524;2022-11-15T22:56:08;12.00;99.90
21318;DHT22;10818;50.830;6.524;2022-11-15T23:01:13;11.90;99.90
21318;DHT22;10818;50.830;6.524;2022-11-15T23:06:17;11.90;99.90
21318;DHT22;10818;50.830;6.524;2022-11-15T23:11:17;11.90;99.90
21318;DHT22;10818;50.830;6.524;2022-11-15T23:16:37;11.90;99.90
21318;DHT22;10818;50.830;6.524;2022-11-15T23:21:40;11.90;99.90
21318;DHT22;10818;50.830;6.524;2022-11-15T23:27:03;11.90;99.90
21318;DHT22;10818;50.830;6.524;2022-11-15T23:32:04;11.90;99.90
21318;DHT22;10818;50.830;6.524;2022-11-15T23:37:31;11.90;99.90
21318;DHT22;10818;50.830;6.524;2022-11-15T23:42:31;12.00;99.90
21318;DHT22;10818;50.830;6.524;2022-11-15T23:47:39;12.00;99.90
21318;DHT22;10818;50.830;6.524;2022-11-15T23:52:40;12.00;99.90
21318;DHT22;10818;50.830;6.524;2022-11-15T23:57:43;12.00;99.90
